createdAt,value
2022-08-16T00:03:37.730Z,-1.19
2022-08-16T00:08:40.993Z,-1.09
2022-08-16T00:13:53.403Z,-1.09
2022-08-16T00:19:00.263Z,-0.89
2022-08-16T00:24:04.738Z,-0.76
2022-08-16T00:29:08.506Z,-1.19
2022-08-16T00:34:18.237Z,-1.01
2022-08-16T00:39:22.044Z,-0.90
2022-08-16T00:44:32.820Z,-0.98
2022-08-16T00:49:39.470Z,-1.24
2022-08-16T00:54:47.850Z,-1.34
2022-08-16T00:59:58.756Z,-1.39
2022-08-16T01:05:09.537Z,-1.41
2022-08-16T01:10:16.153Z,-1.56
2022-08-16T01:15:20.786Z,-1.28
2022-08-16T01:20:33.978Z,-1.53
2022-08-16T01:25:44.147Z,-1.66
2022-08-16T01:30:50.996Z,-1.80
2022-08-16T01:35:58.001Z,-1.46
2022-08-16T01:41:05.668Z,-1.80
2022-08-16T01:46:29.719Z,-1.39
2022-08-16T01:51:34.962Z,-1.35
2022-08-16T01:56:44.854Z,-0.96
2022-08-16T02:01:59.454Z,-1.13
2022-08-16T02:07:11.168Z,-1.22
2022-08-16T02:12:51.725Z,-1.08
2022-08-16T02:17:40.073Z,-0.66
2022-08-16T02:22:43.686Z,-0.81
2022-08-16T02:27:52.041Z,-0.09
2022-08-16T02:32:56.135Z,-0.13
2022-08-16T02:38:08.398Z,0.30
2022-08-16T02:43:13.938Z,-0.08
2022-08-16T02:48:29.133Z,-0.57
2022-08-16T02:53:34.787Z,-0.76
2022-08-16T02:58:40.459Z,-1.08
2022-08-16T03:04:30.199Z,-1.09
2022-08-16T03:09:13.858Z,-0.71
2022-08-16T03:14:21.270Z,-0.37
2022-08-16T03:19:48.346Z,-0.77
2022-08-16T03:24:51.730Z,-1.06
2022-08-16T03:29:56.173Z,-1.10
2022-08-16T03:34:59.939Z,-0.94
2022-08-16T03:40:07.366Z,-0.09
2022-08-16T03:45:12.412Z,0.07
2022-08-16T03:50:26.159Z,-0.13
2022-08-16T03:55:39.987Z,-0.34
2022-08-16T04:00:56.941Z,-0.90
2022-08-16T04:06:02.792Z,-0.48
2022-08-16T04:11:06.441Z,-0.68
2022-08-16T04:16:26.730Z,-0.75
2022-08-16T04:21:32.326Z,-0.60
2022-08-16T04:26:36.362Z,-0.89
2022-08-16T04:31:41.149Z,-0.66
2022-08-16T04:36:48.918Z,-1.41
2022-08-16T04:41:57.010Z,-1.93
2022-08-16T04:47:21.668Z,-2.09
2022-08-16T04:52:33.112Z,-2.61
2022-08-16T04:57:38.488Z,-2.86
2022-08-16T05:02:43.371Z,-3.47
2022-08-16T05:07:58.617Z,-3.78
2022-08-16T05:13:05.145Z,-3.89
2022-08-16T05:18:15.861Z,-4.10
2022-08-16T05:23:19.660Z,-3.67
2022-08-16T05:28:30.935Z,-4.00
2022-08-16T05:33:42.497Z,-4.12
2022-08-16T05:38:46.054Z,-4.37
2022-08-16T05:43:49.495Z,-4.61
2022-08-16T05:48:54.745Z,-4.54
2022-08-16T05:53:58.306Z,-5.18
2022-08-16T05:59:01.183Z,-5.25
2022-08-16T06:04:13.557Z,-5.13
2022-08-16T06:09:43.405Z,-5.68
2022-08-16T06:14:47.212Z,-5.65
2022-08-16T06:19:55.961Z,-5.74
2022-08-16T06:24:59.612Z,-5.82
2022-08-16T06:30:04.030Z,-5.79
2022-08-16T06:35:12.171Z,118.96
2022-08-16T06:40:15.751Z,118.75
2022-08-16T06:45:19.462Z,118.42
2022-08-16T06:50:29.476Z,118.37
2022-08-16T06:55:34.921Z,118.40
2022-08-16T07:00:43.048Z,118.41
2022-08-16T07:05:47.821Z,117.97
2022-08-16T07:10:50.883Z,117.78
2022-08-16T07:15:55.329Z,117.56
2022-08-16T07:21:02.275Z,116.84
2022-08-16T07:26:08.003Z,116.44
2022-08-16T07:31:12.975Z,116.31
2022-08-16T07:36:21.682Z,116.70
2022-08-16T07:41:25.566Z,116.75
2022-08-16T07:46:38.777Z,116.47
2022-08-16T07:51:46.014Z,115.89
2022-08-16T07:56:49.790Z,115.27
2022-08-16T08:01:55.181Z,116.03
2022-08-16T08:07:00.511Z,115.54
2022-08-16T08:12:05.488Z,115.76
2022-08-16T08:17:09.384Z,115.36
2022-08-16T08:22:18.902Z,115.47
2022-08-16T08:27:23.513Z,114.93
2022-08-16T08:32:57.757Z,114.25
2022-08-16T08:37:55.364Z,114.63
2022-08-16T08:43:11.657Z,113.78
2022-08-16T08:48:34.255Z,114.96
2022-08-16T08:53:40.712Z,115.12
2022-08-16T08:58:54.041Z,114.22
2022-08-16T09:04:02.681Z,114.18
2022-08-16T09:09:10.119Z,114.57
2022-08-16T09:14:24.629Z,114.38
2022-08-16T09:19:31.922Z,114.32
2022-08-16T09:24:46.931Z,114.04
2022-08-16T09:30:00.487Z,114.39
2022-08-16T09:35:07.403Z,114.37
2022-08-16T09:40:32.317Z,114.55
2022-08-16T09:45:39.589Z,114.38
2022-08-16T09:50:44.655Z,114.51
2022-08-16T09:55:56.759Z,114.06
2022-08-16T10:01:01.115Z,114.39
2022-08-16T10:06:04.253Z,114.30
2022-08-16T10:11:27.509Z,114.12
2022-08-16T10:16:32.089Z,114.32
2022-08-16T10:21:35.471Z,114.01
2022-08-16T10:27:20.421Z,114.86
2022-08-16T10:32:03.746Z,114.90
2022-08-16T10:37:06.732Z,115.93
2022-08-16T10:42:13.578Z,115.54
2022-08-16T10:47:17.415Z,115.77
2022-08-16T10:52:21.013Z,115.75
2022-08-16T10:57:32.864Z,116.02
2022-08-16T11:02:59.322Z,115.90
2022-08-16T11:08:00.842Z,116.30
2022-08-16T11:18:47.987Z,115.65
2022-08-16T11:23:57.566Z,115.20
2022-08-16T11:29:18.799Z,114.68
2022-08-16T11:34:21.901Z,115.25
2022-08-16T11:39:25.344Z,115.03
2022-08-16T11:44:52.235Z,115.41
2022-08-16T11:49:53.480Z,114.92
2022-08-16T11:55:00.034Z,114.47
2022-08-16T12:00:33.641Z,114.60
2022-08-16T12:05:36.221Z,114.80
2022-08-16T12:10:43.101Z,114.56
2022-08-16T12:15:48.353Z,115.25
2022-08-16T12:20:55.085Z,113.92
2022-08-16T12:25:59.668Z,114.48
2022-08-16T12:31:04.932Z,114.32
2022-08-16T12:36:09.908Z,114.46
2022-08-16T12:41:25.030Z,113.89
2022-08-16T12:46:30.926Z,114.16
2022-08-16T12:51:58.435Z,112.67
2022-08-16T12:57:01.980Z,112.42
2022-08-16T13:02:07.257Z,112.93
2022-08-16T13:07:15.971Z,112.26
2022-08-16T13:12:21.145Z,113.26
2022-08-16T13:17:29.698Z,113.19
2022-08-16T13:22:33.496Z,112.78
2022-08-16T13:28:02.116Z,113.39
2022-08-16T13:33:02.394Z,113.34
2022-08-16T13:38:24.279Z,113.38
2022-08-16T13:43:29.171Z,113.67
2022-08-16T13:48:44.734Z,112.89
2022-08-16T13:53:59.395Z,112.68
2022-08-16T13:59:03.425Z,112.44
2022-08-16T14:04:10.733Z,113.10
2022-08-16T14:09:22.171Z,113.02
2022-08-16T14:14:29.061Z,112.44
2022-08-16T14:19:34.141Z,112.57
2022-08-16T14:24:38.994Z,112.23
2022-08-16T14:29:42.550Z,112.52
2022-08-16T14:34:47.736Z,112.51
2022-08-16T14:39:55.783Z,112.28
2022-08-16T14:45:00.523Z,112.17
2022-08-16T14:50:09.281Z,112.68
2022-08-16T14:55:17.803Z,112.86
2022-08-16T15:00:34.055Z,112.35
2022-08-16T15:05:43.886Z,112.15
2022-08-16T15:10:57.110Z,112.77
2022-08-16T15:16:02.831Z,112.13
2022-08-16T15:21:09.085Z,112.58
2022-08-16T15:26:29.700Z,112.42
2022-08-16T15:31:41.745Z,112.45
2022-08-16T15:36:50.126Z,112.23
2022-08-16T15:42:07.196Z,112.53
2022-08-16T15:47:17.831Z,112.16
2022-08-16T15:52:31.897Z,112.52
2022-08-16T15:57:41.368Z,112.27
2022-08-16T16:02:49.506Z,111.96
2022-08-16T16:08:10.851Z,112.03
2022-08-16T16:13:24.228Z,111.81
2022-08-16T16:18:30.195Z,111.93
2022-08-16T16:23:53.804Z,111.93
2022-08-16T16:29:15.015Z,111.94
2022-08-16T16:34:26.053Z,111.87
2022-08-16T16:39:37.654Z,112.12
2022-08-16T16:44:50.219Z,112.19
2022-08-16T16:49:54.133Z,112.25
2022-08-16T16:54:58.803Z,112.52
2022-08-16T17:00:25.773Z,112.39
2022-08-16T17:05:32.715Z,112.46
2022-08-16T17:10:46.045Z,112.56
2022-08-16T17:15:53.682Z,112.58
2022-08-16T17:20:56.667Z,112.97
2022-08-16T17:26:10.378Z,112.93
2022-08-16T17:31:14.400Z,112.61
2022-08-16T17:36:35.867Z,113.25
2022-08-16T17:41:42.202Z,113.54
2022-08-16T17:47:10.668Z,113.97
2022-08-16T17:52:22.147Z,114.06
2022-08-16T17:57:37.339Z,114.30
2022-08-16T18:03:10.808Z,114.78
2022-08-16T18:08:17.174Z,114.89
2022-08-16T18:13:22.238Z,114.64
2022-08-16T18:18:31.014Z,114.66
2022-08-16T18:23:34.661Z,114.54
2022-08-16T18:28:44.079Z,114.51
2022-08-16T18:33:58.859Z,114.57
2022-08-16T18:39:02.245Z,114.21
2022-08-16T18:44:25.745Z,114.71
2022-08-16T18:49:34.820Z,114.52
2022-08-16T18:55:02.385Z,114.51
2022-08-16T19:00:02.947Z,114.51
2022-08-16T19:05:07.599Z,114.85
2022-08-16T19:10:12.436Z,115.02
2022-08-16T19:15:20.536Z,115.07
2022-08-16T19:20:25.866Z,115.67
2022-08-16T19:25:48.454Z,115.76
2022-08-16T19:30:54.761Z,116.06
2022-08-16T19:35:58.350Z,116.31
2022-08-16T19:41:01.510Z,116.71
2022-08-16T19:46:06.739Z,116.89
2022-08-16T19:51:10.673Z,116.79
2022-08-16T19:56:13.834Z,117.09
2022-08-16T20:01:18.380Z,117.65
2022-08-16T20:06:34.923Z,117.54
2022-08-16T20:11:41.538Z,117.25
2022-08-16T20:16:47.017Z,117.54
2022-08-16T20:21:50.193Z,117.95
2022-08-16T20:26:54.246Z,117.73
2022-08-16T20:31:58.972Z,117.91
2022-08-16T20:37:02.151Z,118.33
2022-08-16T20:42:21.380Z,118.02
2022-08-16T20:47:26.021Z,118.33
2022-08-16T20:52:28.920Z,118.42
2022-08-16T20:57:31.890Z,118.66
2022-08-16T21:02:38.052Z,118.79
2022-08-16T21:07:40.961Z,-5.97
2022-08-16T21:12:49.538Z,-5.95
2022-08-16T21:17:54.535Z,-5.76
2022-08-16T21:22:59.957Z,-5.69
2022-08-16T21:28:40.045Z,-5.74
2022-08-16T21:33:29.392Z,-5.38
2022-08-16T21:38:32.372Z,-5.34
2022-08-16T21:43:36.421Z,-5.05
2022-08-16T21:48:40.968Z,-4.95
2022-08-16T21:53:44.583Z,-4.57
2022-08-16T21:58:53.101Z,-4.90
2022-08-16T22:04:35.499Z,-4.86
2022-08-16T22:09:21.329Z,-4.75
2022-08-16T22:14:24.383Z,-4.54
2022-08-16T22:19:29.205Z,-4.48
2022-08-16T22:24:32.568Z,-4.33
2022-08-16T22:29:35.590Z,-3.67
2022-08-16T22:34:59.528Z,-3.89
2022-08-16T22:40:16.230Z,-4.05
2022-08-16T22:45:20.564Z,-3.84
2022-08-16T22:50:25.721Z,-3.98
2022-08-16T22:55:29.583Z,-3.82
2022-08-16T23:00:34.567Z,-3.66
2022-08-16T23:05:41.372Z,-3.51
2022-08-16T23:10:45.584Z,-3.58
2022-08-16T23:15:51.911Z,-3.72
2022-08-16T23:20:58.522Z,-3.72
2022-08-16T23:26:01.747Z,-3.94
2022-08-16T23:31:06.018Z,-3.80
2022-08-16T23:36:11.996Z,-3.83
2022-08-16T23:41:15.976Z,-3.93
2022-08-16T23:46:19.823Z,-3.61
2022-08-16T23:51:24.317Z,-3.66
2022-08-16T23:56:27.386Z,-3.54
